Time;durP1;ratioP1;P1;durP2;ratioP2;P2;SDS_P1;SDS_P2;PMS_P1;PMS_P2;Temp;Humidity;BMP_temperature;BMP_pressure;BME280_temperature;BME280_humidity;BME280_pressure;Samples;Min_cycle;Max_cycle;Signal;HPM_P1;HPM_P2
2024/01/15 00:01:56;;;;;;;22.90;9.60;;;0.80;99.90;;;;;;5057838;28;20192;-47
2024/01/15 00:04:21;;;;;;;26.57;12.90;;;0.80;99.90;;;;;;5075264;28;20588;-46
2024/01/15 00:06:47;;;;;;;25.20;11.77;;;0.80;99.90;;;;;;5075512;28;20202;-46
2024/01/15 00:09:12;;;;;;;15.93;6.57;;;0.80;99.90;;;;;;5075243;28;20546;-46
2024/01/15 00:11:39;;;;;;;25.00;11.50;;;0.80;99.90;;;;;;5075718;28;20191;-46
2024/01/15 00:14:05;;;;;;;32.93;13.60;;;0.80;99.90;;;;;;5075431;28;20210;-45
2024/01/15 00:16:31;;;;;;;27.47;11.80;;;0.80;99.90;;;;;;5075242;28;20580;-46
2024/01/15 00:18:57;;;;;;;27.20;12.93;;;0.80;99.90;;;;;;5075281;28;20183;-48
2024/01/15 00:21:24;;;;;;;26.90;12.23;;;0.80;99.90;;;;;;5075019;28;20190;-46
2024/01/15 00:23:49;;;;;;;28.20;12.13;;;0.80;99.90;;;;;;5075657;28;20589;-47
2024/01/15 00:26:16;;;;;;;29.23;11.93;;;0.80;99.90;;;;;;5074778;28;20199;-46
2024/01/15 00:28:42;;;;;;;37.20;13.67;;;0.80;99.90;;;;;;5075517;28;20241;-47
2024/01/15 00:31:10;;;;;;;34.23;15.37;;;0.80;99.90;;;;;;5076048;28;20192;-46
2024/01/15 00:33:36;;;;;;;28.97;13.10;;;0.80;99.90;;;;;;5074924;28;20669;-41
2024/01/15 00:36:03;;;;;;;38.83;15.70;;;0.80;99.90;;;;;;5039863;28;20231;-42
2024/01/15 00:38:28;;;;;;;32.97;15.03;;;0.80;99.90;;;;;;5057094;28;20198;-41
2024/01/15 00:40:54;;;;;;;26.03;12.57;;;0.80;99.90;;;;;;5074881;28;20175;-42
2024/01/15 00:43:21;;;;;;;30.53;14.03;;;0.80;99.90;;;;;;5074445;28;20199;-41
2024/01/15 00:45:48;;;;;;;28.13;11.63;;;0.80;99.90;;;;;;5040072;28;20555;-41
2024/01/15 00:48:13;;;;;;;34.40;13.47;;;0.80;99.90;;;;;;5074452;28;20214;-42
2024/01/15 00:50:39;;;;;;;30.33;12.77;;;0.80;99.90;;;;;;5056619;28;20215;-41
2024/01/15 00:53:04;;;;;;;21.80;9.17;;;0.80;99.90;;;;;;5074360;28;20222;-41
2024/01/15 00:55:32;;;;;;;21.37;8.90;;;0.80;99.90;;;;;;5074352;28;20203;-43
2024/01/15 00:57:57;;;;;;;22.67;11.60;;;0.80;99.90;;;;;;5074158;28;20240;-41
2024/01/15 01:00:23;;;;;;;37.07;14.47;;;0.80;99.90;;;;;;5074257;28;20184;-41
2024/01/15 01:02:49;;;;;;;29.40;13.90;;;0.80;99.90;;;;;;5074202;28;20187;-41
2024/01/15 01:05:16;;;;;;;23.23;11.40;;;0.80;99.90;;;;;;5074117;28;20218;-41
2024/01/15 01:07:42;;;;;;;26.30;12.03;;;0.80;99.90;;;;;;5074661;28;20176;-39
2024/01/15 01:10:08;;;;;;;26.67;11.37;;;0.80;99.90;;;;;;5074082;28;20187;-43
2024/01/15 01:12:40;;;;;;;13.60;5.67;;;0.90;99.90;;;;;;5056432;28;20666;-42
2024/01/15 01:15:08;;;;;;;20.60;10.30;;;0.90;99.90;;;;;;5056523;28;20635;-42
2024/01/15 01:17:35;;;;;;;19.13;8.87;;;0.90;99.90;;;;;;5073817;28;20270;-41
2024/01/15 01:20:04;;;;;;;26.90;11.60;;;0.90;99.90;;;;;;5074049;28;20200;-43
2024/01/15 01:22:30;;;;;;;30.17;12.37;;;0.90;99.90;;;;;;5073791;28;20206;-43
2024/01/15 01:24:55;;;;;;;27.90;11.77;;;0.90;99.90;;;;;;5073604;28;20249;-44
2024/01/15 01:27:21;;;;;;;24.67;11.70;;;0.90;99.90;;;;;;5073858;28;20171;-42
2024/01/15 01:29:47;;;;;;;29.13;12.23;;;0.90;99.90;;;;;;5073542;28;20179;-43
2024/01/15 01:32:13;;;;;;;17.00;8.50;;;0.90;99.90;;;;;;5055708;28;20183;-44
2024/01/15 01:34:45;;;;;;;30.70;12.63;;;0.90;99.90;;;;;;5055770;28;20229;-42
2024/01/15 01:37:15;;;;;;;22.37;9.67;;;0.90;99.90;;;;;;5074401;28;20176;-39
2024/01/15 01:39:42;;;;;;;31.07;14.17;;;0.90;99.90;;;;;;5073938;28;20159;-42
2024/01/15 01:42:08;;;;;;;30.83;14.00;;;0.90;99.90;;;;;;5055618;28;20241;-42
2024/01/15 01:44:33;;;;;;;23.90;11.17;;;0.90;99.90;;;;;;5073431;28;20214;-42
2024/01/15 01:47:00;;;;;;;24.07;10.37;;;0.90;99.90;;;;;;5073695;28;20202;-44
2024/01/15 01:49:27;;;;;;;34.23;13.20;;;0.90;99.90;;;;;;5054911;28;20184;-42
2024/01/15 01:51:59;;;;;;;30.20;13.60;;;0.90;99.90;;;;;;5074047;28;20175;-43
2024/01/15 01:54:31;;;;;;;30.43;13.93;;;0.90;99.90;;;;;;5073734;28;20305;-42
2024/01/15 01:56:59;;;;;;;34.93;13.87;;;0.90;99.90;;;;;;5073609;28;20207;-42
2024/01/15 01:59:34;;;;;;;26.63;10.43;;;1.00;99.90;;;;;;5055864;28;20302;-42
2024/01/15 02:02:03;;;;;;;21.97;9.43;;;1.00;99.90;;;;;;5074011;28;20179;-43
2024/01/15 02:04:31;;;;;;;24.27;10.33;;;1.00;99.90;;;;;;5073451;28;20203;-44
2024/01/15 02:06:56;;;;;;;26.57;12.70;;;1.00;99.90;;;;;;5073521;28;20566;-42
2024/01/15 02:09:22;;;;;;;29.50;12.17;;;1.00;99.90;;;;;;5073536;28;20191;-41
2024/01/15 02:11:48;;;;;;;18.70;8.17;;;1.00;99.90;;;;;;5073504;28;20180;-41
2024/01/15 02:14:15;;;;;;;26.40;12.97;;;1.00;99.90;;;;;;5055648;28;20190;-43
2024/01/15 02:16:41;;;;;;;28.07;12.77;;;1.00;99.90;;;;;;5073249;28;20213;-42
2024/01/15 02:19:06;;;;;;;20.13;9.23;;;1.00;99.90;;;;;;5073153;28;20183;-42
2024/01/15 02:21:33;;;;;;;21.23;10.50;;;1.00;99.90;;;;;;5073177;28;20203;-44
2024/01/15 02:23:59;;;;;;;24.33;12.60;;;1.00;99.90;;;;;;5073126;28;20207;-40
2024/01/15 02:26:26;;;;;;;27.17;12.80;;;1.00;99.90;;;;;;5055559;28;20257;-42
2024/01/15 02:28:55;;;;;;;28.47;11.73;;;1.00;99.90;;;;;;5073150;28;20179;-43
2024/01/15 02:31:23;;;;;;;17.90;9.00;;;1.00;99.90;;;;;;5055098;28;20270;-42
2024/01/15 02:33:49;;;;;;;21.47;8.93;;;1.00;99.90;;;;;;5055065;28;20207;-41
2024/01/15 02:36:16;;;;;;;17.17;8.07;;;1.00;99.90;;;;;;5073730;28;20203;-41
2024/01/15 02:38:41;;;;;;;18.97;7.80;;;1.00;99.90;;;;;;5073500;28;20229;-46
2024/01/15 02:41:07;;;;;;;20.23;9.27;;;1.00;99.90;;;;;;5038417;28;20550;-48
2024/01/15 02:43:32;;;;;;;16.43;7.67;;;1.00;99.90;;;;;;5078166;28;20183;-42
2024/01/15 02:45:58;;;;;;;17.93;8.70;;;1.00;99.90;;;;;;5055976;28;20191;-42
2024/01/15 02:48:24;;;;;;;22.77;10.80;;;1.00;99.90;;;;;;5055533;28;20176;-42
2024/01/15 02:50:50;;;;;;;22.97;10.97;;;1.00;99.90;;;;;;5055226;28;20544;-43
2024/01/15 02:53:15;;;;;;;20.63;10.77;;;1.00;99.90;;;;;;5054657;28;20183;-42
2024/01/15 02:55:41;;;;;;;24.10;11.63;;;1.00;99.90;;;;;;5072914;28;20202;-40
2024/01/15 02:58:07;;;;;;;28.10;12.67;;;1.00;99.90;;;;;;5055099;28;20180;-41
2024/01/15 03:00:33;;;;;;;20.30;9.17;;;1.00;99.90;;;;;;5057721;28;20184;-41
2024/01/15 03:02:59;;;;;;;22.63;10.70;;;1.00;99.90;;;;;;5058683;28;20267;-43
2024/01/15 03:05:26;;;;;;;24.83;11.63;;;1.00;99.90;;;;;;5058514;28;20207;-41
2024/01/15 03:07:52;;;;;;;27.33;13.73;;;1.00;99.90;;;;;;5076678;28;20233;-42
2024/01/15 03:10:18;;;;;;;29.17;12.00;;;1.00;99.90;;;;;;5075957;28;20188;-42
2024/01/15 03:12:43;;;;;;;30.77;13.73;;;1.00;99.90;;;;;;5076428;28;20231;-47
2024/01/15 03:15:09;;;;;;;26.80;13.00;;;1.00;99.90;;;;;;5076396;28;20277;-47
2024/01/15 03:17:35;;;;;;;22.73;11.03;;;1.00;99.90;;;;;;5076231;28;20176;-46
2024/01/15 03:20:09;;;;;;;28.80;14.43;;;1.00;99.90;;;;;;5076214;28;20194;-45
2024/01/15 03:22:38;;;;;;;27.17;14.00;;;1.00;99.90;;;;;;5076338;28;20193;-46
2024/01/15 03:25:07;;;;;;;27.40;12.27;;;1.00;99.90;;;;;;5075877;28;20245;-47
2024/01/15 03:27:33;;;;;;;29.80;12.53;;;1.00;99.90;;;;;;5074738;28;20221;-46
2024/01/15 03:30:02;;;;;;;21.10;11.07;;;1.00;99.90;;;;;;5076044;28;20530;-46
2024/01/15 03:32:28;;;;;;;21.87;8.73;;;1.00;99.90;;;;;;5076354;28;20187;-46
2024/01/15 03:34:53;;;;;;;18.57;9.13;;;1.00;99.90;;;;;;5057972;28;20585;-48
2024/01/15 03:37:22;;;;;;;27.23;10.00;;;0.90;99.90;;;;;;5076959;28;20176;-46
2024/01/15 03:39:47;;;;;;;23.37;10.60;;;0.90;99.90;;;;;;5078237;28;20508;-47
2024/01/15 03:42:14;;;;;;;21.33;9.37;;;0.90;99.90;;;;;;5076953;28;20199;-47
2024/01/15 03:44:40;;;;;;;18.40;9.57;;;0.90;99.90;;;;;;5075624;28;20605;-46
2024/01/15 03:47:05;;;;;;;16.70;8.00;;;0.90;99.90;;;;;;5075524;28;20203;-42
2024/01/15 03:49:32;;;;;;;16.27;7.27;;;1.00;99.90;;;;;;5075644;28;20258;-46
2024/01/15 03:52:01;;;;;;;12.67;5.87;;;1.00;99.90;;;;;;5075885;28;20519;-47
2024/01/15 03:54:26;;;;;;;17.37;8.07;;;0.90;99.90;;;;;;5057553;28;20198;-47
2024/01/15 03:56:52;;;;;;;14.53;7.47;;;1.00;99.90;;;;;;5075470;28;20211;-47
2024/01/15 03:59:18;;;;;;;15.53;6.97;;;1.00;99.90;;;;;;5057692;28;20194;-46
2024/01/15 04:01:50;;;;;;;20.43;10.33;;;1.00;99.90;;;;;;5075928;28;20194;-48
2024/01/15 04:04:17;;;;;;;21.80;10.93;;;1.00;99.90;;;;;;5040946;28;20211;-48
2024/01/15 04:06:43;;;;;;;15.33;7.63;;;1.00;99.90;;;;;;5075285;28;20204;-47
2024/01/15 04:09:08;;;;;;;19.67;8.30;;;1.10;99.90;;;;;;5075242;28;20259;-46
2024/01/15 04:11:35;;;;;;;22.07;10.63;;;1.00;99.90;;;;;;5056617;28;20183;-47
2024/01/15 04:14:01;;;;;;;11.73;5.80;;;1.10;99.90;;;;;;5075151;28;20610;-43
2024/01/15 04:16:26;;;;;;;22.10;10.27;;;1.10;99.90;;;;;;5075511;28;20234;-42
2024/01/15 04:18:52;;;;;;;16.87;8.80;;;1.10;99.90;;;;;;5075306;28;20266;-43
2024/01/15 04:21:18;;;;;;;14.57;6.37;;;1.10;99.90;;;;;;5057411;28;20635;-45
2024/01/15 04:23:44;;;;;;;12.60;7.30;;;1.10;99.90;;;;;;5057046;28;20215;-43
2024/01/15 04:26:12;;;;;;;22.53;8.63;;;1.10;99.90;;;;;;5057034;28;20259;-43
2024/01/15 04:28:38;;;;;;;17.50;7.13;;;1.10;99.90;;;;;;5075470;28;20176;-42
2024/01/15 04:31:07;;;;;;;20.40;8.83;;;1.10;99.90;;;;;;5057319;28;20179;-42
2024/01/15 04:33:37;;;;;;;17.33;8.07;;;1.10;99.90;;;;;;5074619;28;20289;-41
2024/01/15 04:36:05;;;;;;;19.40;9.50;;;1.00;99.90;;;;;;5074944;28;20200;-42
2024/01/15 04:38:32;;;;;;;12.50;6.40;;;1.00;99.90;;;;;;5057355;28;20555;-42
2024/01/15 04:41:01;;;;;;;16.60;7.47;;;1.10;99.90;;;;;;5057443;28;20203;-44
2024/01/15 04:43:26;;;;;;;17.33;8.47;;;1.10;99.90;;;;;;5075009;28;20180;-43
2024/01/15 04:45:52;;;;;;;16.40;6.73;;;1.10;99.90;;;;;;5074937;28;20204;-41
2024/01/15 04:48:18;;;;;;;14.60;7.40;;;1.10;99.90;;;;;;5075370;28;20186;-46
2024/01/15 04:50:43;;;;;;;21.67;9.43;;;1.10;99.90;;;;;;5075979;28;20191;-46
2024/01/15 04:53:12;;;;;;;12.37;5.97;;;1.10;99.90;;;;;;5075140;28;20686;-43
2024/01/15 04:55:40;;;;;;;13.03;6.60;;;1.00;99.90;;;;;;5074281;28;20609;-43
2024/01/15 04:58:06;;;;;;;7.57;4.70;;;1.00;99.90;;;;;;5057061;28;20230;-41
2024/01/15 05:00:32;;;;;;;14.07;7.13;;;0.90;99.90;;;;;;5057402;28;20191;-40
2024/01/15 05:02:58;;;;;;;13.77;6.97;;;1.00;99.90;;;;;;5074176;28;20726;-41
2024/01/15 05:05:29;;;;;;;17.27;6.90;;;1.00;99.90;;;;;;5073965;28;20294;-42
2024/01/15 05:07:55;;;;;;;13.67;7.20;;;0.90;99.90;;;;;;5056112;28;20198;-41
2024/01/15 05:10:25;;;;;;;9.50;5.37;;;0.90;99.90;;;;;;5074646;28;20182;-41
2024/01/15 05:12:51;;;;;;;7.10;4.20;;;0.90;99.90;;;;;;5074089;28;20556;-43
2024/01/15 05:15:16;;;;;;;14.10;6.07;;;1.00;99.90;;;;;;5056173;28;20207;-42
2024/01/15 05:17:45;;;;;;;12.87;7.00;;;1.00;99.90;;;;;;5073872;28;20760;-40
2024/01/15 05:20:13;;;;;;;12.03;7.07;;;1.00;99.90;;;;;;5074122;28;20229;-40
2024/01/15 05:22:39;;;;;;;11.73;6.30;;;1.00;99.90;;;;;;5073763;28;20208;-43
2024/01/15 05:25:05;;;;;;;14.23;7.33;;;1.00;99.90;;;;;;5073662;28;20257;-42
2024/01/15 05:27:30;;;;;;;15.90;7.67;;;1.00;99.90;;;;;;5074303;28;20184;-43
2024/01/15 05:29:56;;;;;;;6.40;3.67;;;1.00;99.90;;;;;;5073653;28;20650;-39
2024/01/15 05:32:24;;;;;;;14.63;7.63;;;1.00;99.90;;;;;;5055909;28;20266;-43
2024/01/15 05:34:50;;;;;;;7.53;4.97;;;1.10;99.90;;;;;;5073511;28;20608;-44
2024/01/15 05:37:15;;;;;;;12.03;6.73;;;1.10;99.90;;;;;;5073544;28;20256;-41
2024/01/15 05:39:47;;;;;;;15.40;8.73;;;1.10;99.90;;;;;;5074064;28;20215;-45
2024/01/15 05:42:13;;;;;;;17.40;8.13;;;1.10;99.90;;;;;;5073636;28;20194;-41
2024/01/15 05:44:38;;;;;;;14.40;7.97;;;1.10;99.90;;;;;;5055759;28;20748;-42
2024/01/15 05:47:04;;;;;;;11.93;6.37;;;1.10;99.90;;;;;;5073316;28;20306;-42
2024/01/15 05:49:30;;;;;;;15.83;8.87;;;1.10;99.90;;;;;;5074166;28;20250;-41
2024/01/15 05:51:55;;;;;;;20.63;9.33;;;1.00;99.90;;;;;;5073405;28;20176;-40
2024/01/15 05:54:57;;;;;;;6.13;3.33;;;1.10;99.90;;;;;;5073619;28;20180;-44
2024/01/15 05:57:32;;;;;;;17.27;8.53;;;1.00;99.90;;;;;;5071519;28;20195;-44
2024/01/15 06:00:05;;;;;;;10.40;5.67;;;1.00;99.90;;;;;;5073072;28;20171;-40
2024/01/15 06:02:37;;;;;;;18.83;8.27;;;1.10;99.90;;;;;;5072269;28;20187;-41
2024/01/15 06:05:07;;;;;;;17.37;9.00;;;1.10;99.90;;;;;;5053960;28;20227;-43
2024/01/15 06:07:40;;;;;;;15.40;8.00;;;1.00;99.90;;;;;;5055129;28;20175;-40
2024/01/15 06:10:26;;;;;;;13.20;5.67;;;1.10;99.90;;;;;;5071576;28;20182;-42
2024/01/15 06:12:54;;;;;;;13.33;8.20;;;1.10;99.90;;;;;;5055094;28;20233;-44
2024/01/15 06:15:26;;;;;;;15.43;8.73;;;1.10;99.90;;;;;;5055074;28;20202;-42
2024/01/15 06:17:51;;;;;;;15.97;7.83;;;1.10;99.90;;;;;;5055154;28;20172;-40
2024/01/15 06:20:17;;;;;;;14.07;7.50;;;1.10;99.90;;;;;;5073121;28;20187;-42
2024/01/15 06:22:42;;;;;;;12.87;7.77;;;1.10;99.90;;;;;;5073917;28;20191;-43
2024/01/15 06:25:12;;;;;;;16.93;8.33;;;1.10;99.90;;;;;;5073241;28;20211;-43
2024/01/15 06:27:37;;;;;;;14.67;6.13;;;1.10;99.90;;;;;;5073238;28;20251;-42
2024/01/15 06:30:05;;;;;;;13.57;7.80;;;1.10;99.90;;;;;;5073919;28;20218;-45
2024/01/15 06:32:34;;;;;;;14.83;8.43;;;1.10;99.90;;;;;;5073523;28;20221;-43
2024/01/15 06:35:00;;;;;;;9.90;5.37;;;1.10;99.90;;;;;;5074213;28;20191;-42
2024/01/15 06:37:26;;;;;;;15.30;6.53;;;1.10;99.90;;;;;;5059428;28;20213;-43
2024/01/15 06:39:54;;;;;;;10.80;6.77;;;1.10;99.90;;;;;;5077086;28;20197;-40
2024/01/15 06:42:21;;;;;;;13.50;7.03;;;1.10;99.90;;;;;;5077236;28;20183;-43
2024/01/15 06:44:47;;;;;;;10.77;6.40;;;1.10;99.90;;;;;;5059454;28;20265;-42
2024/01/15 06:47:14;;;;;;;12.13;6.77;;;1.10;99.90;;;;;;5059117;28;20188;-42
2024/01/15 06:49:40;;;;;;;15.57;7.10;;;1.10;99.90;;;;;;5059552;28;20259;-41
2024/01/15 06:52:07;;;;;;;17.53;9.00;;;1.10;99.90;;;;;;5076726;28;20642;-41
2024/01/15 06:54:32;;;;;;;12.00;8.13;;;1.10;99.90;;;;;;5076863;28;20174;-41
2024/01/15 06:56:58;;;;;;;15.13;8.83;;;1.10;99.90;;;;;;5058953;28;20543;-41
2024/01/15 06:59:26;;;;;;;13.83;6.63;;;1.10;99.90;;;;;;5076835;28;20184;-43
2024/01/15 07:01:54;;;;;;;14.07;8.43;;;1.10;99.90;;;;;;5076953;28;20186;-42
2024/01/15 07:04:20;;;;;;;18.07;8.47;;;1.10;99.90;;;;;;5059220;28;20574;-42
2024/01/15 07:06:48;;;;;;;17.27;9.53;;;1.20;99.90;;;;;;5076705;28;20192;-47
2024/01/15 07:09:16;;;;;;;18.47;8.03;;;1.10;99.90;;;;;;5076428;28;20179;-46
2024/01/15 07:11:48;;;;;;;19.27;9.17;;;1.10;99.90;;;;;;5076441;28;20570;-48
2024/01/15 07:14:14;;;;;;;16.03;7.87;;;1.10;99.90;;;;;;5076332;28;20186;-47
2024/01/15 07:16:39;;;;;;;14.10;6.80;;;1.20;99.90;;;;;;5076395;28;20195;-49
2024/01/15 07:19:06;;;;;;;17.10;9.30;;;1.10;99.90;;;;;;5076889;28;20179;-47
2024/01/15 07:21:31;;;;;;;18.83;9.57;;;1.10;99.90;;;;;;5077171;28;20190;-47
2024/01/15 07:23:57;;;;;;;19.47;9.33;;;1.20;99.90;;;;;;5076594;28;20218;-47
2024/01/15 07:26:23;;;;;;;17.03;8.03;;;1.10;99.90;;;;;;5058841;28;20585;-48
2024/01/15 07:31:17;;;;;;;17.57;8.53;;;1.20;99.90;;;;;;5054689;28;20705;-44
2024/01/15 07:33:43;;;;;;;22.93;12.37;;;1.20;99.90;;;;;;5056010;28;20183;-44
2024/01/15 07:36:13;;;;;;;24.37;12.40;;;1.20;99.90;;;;;;5056684;28;20559;-44
2024/01/15 07:38:39;;;;;;;25.57;11.70;;;1.20;99.90;;;;;;5056327;28;20635;-44
2024/01/15 07:41:04;;;;;;;21.47;11.17;;;1.20;99.90;;;;;;5054793;28;20180;-45
2024/01/15 07:43:34;;;;;;;23.30;12.30;;;1.20;99.90;;;;;;5054661;28;20288;-44
2024/01/15 07:46:00;;;;;;;20.20;8.60;;;1.20;99.90;;;;;;5054866;28;20223;-45
2024/01/15 07:51:17;;;;;;;18.43;10.23;;;1.20;99.90;;;;;;5054767;28;20540;-44
2024/01/15 07:53:43;;;;;;;17.23;9.40;;;1.20;99.90;;;;;;5055641;28;20187;-43
2024/01/15 07:56:10;;;;;;;18.20;9.60;;;1.30;99.90;;;;;;5054678;28;20564;-44
2024/01/15 07:58:36;;;;;;;19.07;9.60;;;1.20;99.90;;;;;;5054396;28;20188;-43
2024/01/15 08:01:01;;;;;;;10.27;5.90;;;1.30;99.90;;;;;;5055584;28;20643;-44
2024/01/15 08:03:27;;;;;;;18.53;10.07;;;1.20;99.90;;;;;;5055880;28;20195;-43
2024/01/15 08:05:57;;;;;;;17.30;10.40;;;1.30;99.90;;;;;;5055550;28;20212;-46
2024/01/15 08:08:30;;;;;;;16.40;8.87;;;1.30;99.90;;;;;;5055655;28;20179;-43
2024/01/15 08:10:56;;;;;;;15.13;7.43;;;1.30;99.90;;;;;;5054339;28;20189;-46
2024/01/15 08:13:27;;;;;;;18.33;8.53;;;1.30;99.90;;;;;;5055503;28;20183;-43
2024/01/15 08:15:53;;;;;;;18.17;10.27;;;1.20;99.90;;;;;;5055344;28;20675;-44
2024/01/15 08:18:21;;;;;;;22.23;11.00;;;1.20;99.90;;;;;;5055425;28;20191;-44
2024/01/15 08:20:47;;;;;;;13.50;7.90;;;1.20;99.90;;;;;;5055150;28;20180;-44
2024/01/15 08:23:14;;;;;;;16.37;9.17;;;1.20;99.90;;;;;;5055332;28;20188;-44
2024/01/15 08:25:41;;;;;;;8.73;5.67;;;1.20;99.90;;;;;;5055163;28;20258;-44
2024/01/15 08:28:08;;;;;;;18.77;10.03;;;1.20;99.90;;;;;;5055270;28;20226;-44
2024/01/15 08:30:33;;;;;;;18.47;8.90;;;1.20;99.90;;;;;;5053659;28;20617;-44
2024/01/15 08:33:00;;;;;;;24.23;11.83;;;1.20;99.90;;;;;;5053878;28;20180;-44
2024/01/15 08:35:29;;;;;;;16.77;8.70;;;1.20;99.90;;;;;;5053688;28;20294;-44
2024/01/15 08:37:55;;;;;;;12.67;5.23;;;1.30;99.90;;;;;;5053600;28;20184;-45
2024/01/15 08:40:20;;;;;;;19.20;8.53;;;1.30;99.90;;;;;;5054630;28;20341;-44
2024/01/15 08:42:49;;;;;;;14.50;6.57;;;1.30;99.90;;;;;;5053639;28;20183;-44
2024/01/15 08:45:15;;;;;;;12.77;7.20;;;1.30;99.90;;;;;;5054944;28;20226;-44
2024/01/15 08:47:40;;;;;;;14.20;6.70;;;1.20;99.90;;;;;;5054631;28;20177;-43
2024/01/15 08:50:10;;;;;;;15.27;7.67;;;1.20;99.90;;;;;;5054972;28;20176;-44
2024/01/15 08:52:36;;;;;;;12.27;7.17;;;1.20;99.90;;;;;;5054748;28;20628;-45
2024/01/15 08:55:01;;;;;;;9.97;4.70;;;1.20;99.90;;;;;;5054741;28;20191;-43
2024/01/15 08:57:33;;;;;;;9.93;5.27;;;1.20;99.90;;;;;;5054312;28;20176;-44
2024/01/15 08:59:59;;;;;;;11.57;7.13;;;1.20;99.90;;;;;;5055042;28;20163;-46
2024/01/15 09:02:29;;;;;;;11.83;5.77;;;1.20;99.90;;;;;;5054451;28;20627;-44
2024/01/15 09:04:58;;;;;;;8.50;3.47;;;1.20;99.90;;;;;;5054579;28;20204;-44
2024/01/15 09:07:25;;;;;;;10.50;5.80;;;1.20;99.90;;;;;;5053309;28;20181;-44
2024/01/15 09:09:50;;;;;;;10.87;6.27;;;1.20;99.90;;;;;;5053337;28;20192;-44
2024/01/15 09:12:20;;;;;;;10.60;5.87;;;1.10;99.90;;;;;;5053017;28;20681;-43
2024/01/15 09:14:50;;;;;;;11.40;5.87;;;1.20;99.90;;;;;;5054290;28;20584;-44
2024/01/15 09:17:16;;;;;;;9.37;5.43;;;1.20;99.90;;;;;;5054073;28;20179;-45
2024/01/15 09:19:45;;;;;;;10.43;6.07;;;1.20;99.90;;;;;;5052894;28;20191;-45
2024/01/15 09:22:18;;;;;;;5.80;3.57;;;1.20;99.90;;;;;;5054471;28;20199;-46
2024/01/15 09:24:47;;;;;;;8.70;4.60;;;1.20;99.90;;;;;;5054057;28;20528;-45
2024/01/15 09:27:14;;;;;;;7.83;5.17;;;1.30;99.90;;;;;;5054268;28;20168;-46
2024/01/15 09:29:41;;;;;;;8.70;3.97;;;1.30;99.90;;;;;;5053769;28;20205;-46
2024/01/15 09:32:07;;;;;;;12.10;5.53;;;1.30;99.90;;;;;;5054138;28;20203;-45
2024/01/15 09:34:34;;;;;;;8.13;5.03;;;1.40;99.90;;;;;;5054094;28;20218;-45
2024/01/15 09:37:00;;;;;;;4.67;3.70;;;1.40;99.90;;;;;;5035959;28;20342;-44
2024/01/15 09:39:30;;;;;;;8.70;4.83;;;1.40;99.90;;;;;;5053678;28;20275;-44
2024/01/15 09:41:57;;;;;;;4.57;2.87;;;1.40;99.90;;;;;;5052471;28;20552;-44
2024/01/15 09:44:23;;;;;;;6.70;3.27;;;1.40;99.90;;;;;;5052269;28;20693;-44
2024/01/15 09:46:50;;;;;;;2.67;1.90;;;1.40;99.90;;;;;;5053459;28;20196;-44
2024/01/15 09:49:21;;;;;;;5.23;3.33;;;1.40;99.90;;;;;;5053339;28;20188;-43
2024/01/15 09:51:47;;;;;;;3.50;2.70;;;1.40;99.90;;;;;;5053753;28;20247;-44
2024/01/15 09:54:16;;;;;;;4.23;2.63;;;1.40;99.90;;;;;;5053636;28;20207;-44
2024/01/15 09:56:49;;;;;;;6.37;4.47;;;1.40;99.90;;;;;;5053395;28;20199;-44
2024/01/15 09:59:18;;;;;;;3.77;2.73;;;1.40;99.90;;;;;;5053699;28;20195;-46
2024/01/15 10:01:45;;;;;;;4.80;2.83;;;1.40;99.90;;;;;;5053567;28;20289;-44
2024/01/15 10:04:18;;;;;;;3.67;3.20;;;1.40;99.90;;;;;;5053296;28;20203;-43
2024/01/15 10:06:45;;;;;;;7.30;2.93;;;1.40;99.90;;;;;;5053419;28;20703;-44
2024/01/15 10:09:15;;;;;;;5.47;2.27;;;1.40;99.90;;;;;;5052863;28;20222;-44
2024/01/15 10:11:42;;;;;;;3.43;2.30;;;1.40;99.90;;;;;;5051875;28;20199;-45
2024/01/15 10:14:08;;;;;;;3.43;2.67;;;1.40;99.90;;;;;;5053516;28;20226;-45
2024/01/15 10:16:34;;;;;;;3.57;2.67;;;1.40;99.90;;;;;;5053285;28;20211;-44
2024/01/15 10:19:00;;;;;;;3.43;2.00;;;1.40;99.90;;;;;;5052127;28;20572;-44
2024/01/15 10:21:27;;;;;;;4.30;2.90;;;1.40;99.90;;;;;;5053216;28;20187;-43
2024/01/15 10:23:57;;;;;;;4.50;2.60;;;1.40;99.90;;;;;;5053315;28;20172;-45
2024/01/15 10:26:26;;;;;;;2.53;1.67;;;1.40;99.90;;;;;;5051734;28;20219;-43
2024/01/15 10:28:54;;;;;;;3.17;2.67;;;1.30;99.90;;;;;;5052038;28;20214;-44
2024/01/15 10:31:38;;;;;;;2.57;1.60;;;1.40;99.90;;;;;;5053068;28;20793;-44
2024/01/15 10:34:16;;;;;;;2.77;2.17;;;1.30;99.90;;;;;;5053504;28;20201;-43
2024/01/15 10:36:45;;;;;;;2.43;1.70;;;1.30;99.90;;;;;;5053260;28;20202;-45
2024/01/15 10:39:15;;;;;;;1.87;1.70;;;1.30;99.90;;;;;;5052275;28;20184;-43
2024/01/15 10:41:40;;;;;;;2.00;1.70;;;1.30;99.90;;;;;;5052402;28;20196;-43
2024/01/15 10:44:06;;;;;;;1.47;0.97;;;1.40;99.90;;;;;;5052083;28;20219;-43
2024/01/15 10:46:34;;;;;;;1.90;1.70;;;1.30;99.90;;;;;;5053209;28;20203;-44
2024/01/15 10:49:00;;;;;;;1.53;1.30;;;1.40;99.90;;;;;;5051946;28;20203;-44
2024/01/15 10:51:25;;;;;;;3.07;1.33;;;1.30;99.90;;;;;;5052826;28;20169;-43
2024/01/15 10:53:53;;;;;;;2.53;2.03;;;1.40;99.90;;;;;;5051961;28;20267;-44
2024/01/15 10:56:21;;;;;;;2.87;2.57;;;1.40;99.90;;;;;;5051813;28;20212;-43
2024/01/15 10:58:47;;;;;;;2.63;1.90;;;1.40;99.90;;;;;;5053116;28;20298;-43
2024/01/15 11:01:13;;;;;;;3.37;2.77;;;1.40;99.90;;;;;;5052777;28;20198;-43
2024/01/15 11:03:39;;;;;;;3.47;3.17;;;1.40;99.90;;;;;;5051539;28;20598;-43
2024/01/15 11:06:22;;;;;;;3.10;2.80;;;1.40;99.90;;;;;;5052897;28;20196;-43
2024/01/15 11:08:52;;;;;;;4.30;2.80;;;1.40;99.90;;;;;;5036114;28;20623;-43
2024/01/15 11:11:18;;;;;;;5.80;3.20;;;1.30;99.90;;;;;;5052858;28;20643;-43
2024/01/15 11:13:46;;;;;;;4.50;3.63;;;1.40;99.90;;;;;;5052636;28;20179;-43
2024/01/15 11:16:15;;;;;;;2.77;2.43;;;1.40;99.90;;;;;;5052860;28;20235;-44
2024/01/15 11:18:57;;;;;;;6.53;3.97;;;1.40;99.90;;;;;;5052897;28;20568;-45
2024/01/15 11:21:25;;;;;;;5.23;3.43;;;1.40;99.90;;;;;;5054696;28;20164;-44
2024/01/15 11:23:56;;;;;;;4.53;3.70;;;1.30;99.90;;;;;;5056988;28;20198;-43
2024/01/15 11:26:40;;;;;;;7.43;3.97;;;1.30;99.90;;;;;;5056191;28;20201;-44
2024/01/15 11:29:27;;;;;;;6.40;2.63;;;1.30;99.90;;;;;;5056303;28;20188;-43
2024/01/15 11:31:57;;;;;;;5.07;4.00;;;1.30;99.90;;;;;;5058085;28;20188;-44
2024/01/15 11:34:58;;;;;;;4.83;3.50;;;1.30;99.90;;;;;;5057336;28;20184;-45
2024/01/15 11:37:26;;;;;;;5.43;3.27;;;1.40;99.90;;;;;;5052752;28;20223;-49
2024/01/15 11:40:03;;;;;;;3.63;1.60;;;1.50;99.90;;;;;;5055842;28;20247;-48
2024/01/15 11:42:32;;;;;;;9.23;3.47;;;1.50;99.90;;;;;;5055861;28;20167;-49
2024/01/15 11:45:03;;;;;;;7.97;3.53;;;1.50;99.90;;;;;;5054956;28;20787;-49
2024/01/15 11:47:59;;;;;;;3.53;2.53;;;1.60;99.90;;;;;;5055673;28;20271;-49
2024/01/15 11:50:30;;;;;;;8.17;4.00;;;1.60;99.90;;;;;;5055699;28;20200;-50
2024/01/15 11:53:05;;;;;;;15.03;3.90;;;1.70;99.90;;;;;;5055576;28;20235;-48
2024/01/15 11:55:35;;;;;;;9.20;3.47;;;1.70;99.90;;;;;;5055938;28;20204;-47
2024/01/15 11:58:03;;;;;;;6.77;3.80;;;1.70;99.90;;;;;;5054681;28;20231;-48
2024/01/15 12:00:29;;;;;;;8.03;3.17;;;1.80;99.90;;;;;;5055587;28;20171;-50
2024/01/15 12:02:57;;;;;;;7.70;3.37;;;1.80;99.90;;;;;;5055362;28;20215;-48
2024/01/15 12:05:26;;;;;;;9.43;3.93;;;1.80;99.90;;;;;;5055513;28;20235;-47
2024/01/15 12:07:52;;;;;;;6.37;3.07;;;1.90;99.90;;;;;;5055344;28;20196;-48
2024/01/15 12:10:19;;;;;;;14.20;3.07;;;1.90;99.90;;;;;;5054365;28;20187;-48
2024/01/15 12:13:05;;;;;;;7.17;3.07;;;1.90;99.90;;;;;;5055482;28;20184;-48
2024/01/15 12:15:31;;;;;;;13.43;4.13;;;1.90;99.90;;;;;;5055500;28;20541;-49
2024/01/15 12:18:02;;;;;;;6.73;3.40;;;2.00;99.90;;;;;;5055279;28;20237;-47
2024/01/15 12:20:28;;;;;;;5.70;2.57;;;2.00;99.90;;;;;;5054292;28;20176;-48
2024/01/15 12:22:55;;;;;;;8.00;3.00;;;2.00;99.90;;;;;;5055024;28;20168;-48
2024/01/15 12:25:26;;;;;;;4.57;2.03;;;2.00;99.90;;;;;;5055142;28;20579;-48
2024/01/15 12:27:54;;;;;;;6.00;2.50;;;2.00;99.90;;;;;;5055188;28;20195;-48
2024/01/15 12:30:21;;;;;;;7.07;2.87;;;2.00;99.90;;;;;;5054755;28;20203;-49
2024/01/15 12:32:47;;;;;;;4.80;2.60;;;2.00;99.90;;;;;;5054145;28;20188;-50
2024/01/15 12:35:15;;;;;;;6.03;3.10;;;2.00;99.90;;;;;;5053534;28;20299;-46
2024/01/15 12:37:42;;;;;;;7.97;2.60;;;2.10;99.90;;;;;;5054713;28;20366;-48
2024/01/15 12:40:10;;;;;;;7.87;3.40;;;2.10;99.90;;;;;;5053811;28;20188;-49
2024/01/15 12:42:42;;;;;;;3.93;2.80;;;2.10;99.90;;;;;;5054930;28;20241;-49
2024/01/15 12:45:11;;;;;;;5.30;2.97;;;2.20;99.90;;;;;;5054515;28;20266;-47
2024/01/15 12:47:39;;;;;;;3.73;1.93;;;2.30;99.90;;;;;;5053974;28;20641;-47
2024/01/15 12:50:17;;;;;;;2.87;1.90;;;2.40;99.90;;;;;;5054783;28;20545;-48
2024/01/15 12:52:44;;;;;;;3.47;2.13;;;2.40;99.90;;;;;;5054801;28;20187;-48
2024/01/15 12:55:10;;;;;;;3.17;2.50;;;2.30;99.90;;;;;;5054461;28;20204;-49
2024/01/15 12:57:36;;;;;;;5.60;2.30;;;2.30;99.90;;;;;;5054522;28;20259;-48